Time;durP1;ratioP1;P1;durP2;ratioP2;P2;SDS_P1;SDS_P2;PMS_P1;PMS_P2;Temp;Humidity;BMP_temperature;BMP_pressure;BME280_temperature;BME280_humidity;BME280_pressure;Samples;Min_cycle;Max_cycle;Signal;HPM_P1;HPM_P2
2021/08/27 00:01:55;;;;;;;11.57;5.53;;;;;;;10.78;100.00;93675.09;5075000;28;20207;-81
2021/08/27 00:04:21;;;;;;;12.27;4.73;;;;;;;10.77;100.00;93672.69;5074710;28;20669;-81
2021/08/27 00:06:48;;;;;;;10.77;5.40;;;;;;;10.84;100.00;93671.69;5074061;28;20205;-80
2021/08/27 00:09:14;;;;;;;13.40;5.93;;;;;;;10.77;100.00;93665.66;5074632;28;20203;-83
2021/08/27 00:11:41;;;;;;;14.23;5.20;;;;;;;10.80;100.00;93665.25;5074478;28;20230;-81
2021/08/27 00:14:07;;;;;;;10.10;5.10;;;;;;;10.76;100.00;93660.63;5074707;28;20214;-80
2021/08/27 00:16:34;;;;;;;11.73;5.20;;;;;;;10.76;100.00;93671.06;5074473;28;20199;-81
2021/08/27 00:19:01;;;;;;;8.80;4.90;;;;;;;10.73;100.00;93662.66;5074627;28;20203;-81
2021/08/27 00:21:28;;;;;;;13.00;5.20;;;;;;;10.74;100.00;93672.09;5074453;28;20256;-80
2021/08/27 00:23:54;;;;;;;9.67;5.23;;;;;;;10.76;100.00;93661.44;5074272;28;20203;-81
2021/08/27 00:26:21;;;;;;;11.73;5.43;;;;;;;10.74;100.00;93663.44;5074421;28;20677;-80
2021/08/27 00:28:47;;;;;;;13.90;5.10;;;;;;;10.78;100.00;93662.03;5074409;28;20203;-80
2021/08/27 00:31:14;;;;;;;14.60;5.77;;;;;;;10.78;100.00;93658.63;5074178;28;20590;-81
2021/08/27 00:33:40;;;;;;;12.47;5.33;;;;;;;10.78;100.00;93658.63;5074382;28;20226;-80
2021/08/27 00:36:08;;;;;;;9.23;4.87;;;;;;;10.81;100.00;93663.44;5074227;28;20210;-81
2021/08/27 00:38:34;;;;;;;11.40;4.90;;;;;;;10.82;100.00;93659.81;5073638;28;20202;-81
2021/08/27 00:41:01;;;;;;;10.57;4.80;;;;;;;10.78;100.00;93662.03;5074561;28;20566;-79
2021/08/27 00:43:27;;;;;;;7.93;4.40;;;;;;;10.83;100.00;93653.59;5074306;28;20225;-81
2021/08/27 00:45:54;;;;;;;14.97;5.30;;;;;;;10.84;100.00;93653.41;5074162;28;20231;-81
2021/08/27 00:48:20;;;;;;;11.93;4.60;;;;;;;10.86;100.00;93661.81;5074029;28;20205;-80
2021/08/27 00:50:48;;;;;;;15.00;5.20;;;;;;;10.87;100.00;93652.97;5073941;28;20585;-80
2021/08/27 00:53:16;;;;;;;10.03;4.07;;;;;;;10.96;100.00;93650.94;5073937;28;20281;-80
2021/08/27 00:55:45;;;;;;;12.13;4.43;;;;;;;10.91;100.00;93651.56;5074082;28;20202;-81
2021/08/27 00:58:13;;;;;;;7.40;4.20;;;;;;;10.85;100.00;93656.81;5074125;28;20199;-82
2021/08/27 01:00:39;;;;;;;11.57;4.40;;;;;;;10.84;100.00;93655.19;5074080;28;20286;-81
2021/08/27 01:03:08;;;;;;;10.53;4.50;;;;;;;10.79;100.00;93653.22;5074012;28;20201;-82
2021/08/27 01:05:36;;;;;;;8.50;4.40;;;;;;;10.66;100.00;93658.47;5073885;28;20206;-82
2021/08/27 01:08:08;;;;;;;12.57;4.80;;;;;;;10.60;100.00;93657.44;5073950;28;20208;-82
2021/08/27 01:10:42;;;;;;;12.37;4.57;;;;;;;10.63;100.00;93649.22;5073763;28;20223;-81
2021/08/27 01:13:16;;;;;;;14.00;4.97;;;;;;;10.59;100.00;93655.88;5073848;28;20561;-81
2021/08/27 01:15:49;;;;;;;8.60;4.50;;;;;;;10.56;100.00;93656.25;5073630;28;20674;-80
2021/08/27 01:18:23;;;;;;;13.52;5.60;;;;;;;10.54;100.00;93651.25;5071452;28;20433;-81
2021/08/27 01:21:14;;;;;;;11.57;4.47;;;;;;;10.57;100.00;93651.84;5073805;28;20432;-81
2021/08/27 01:23:43;;;;;;;16.53;5.13;;;;;;;10.59;100.00;93648.03;5072909;28;20203;-81
2021/08/27 01:26:15;;;;;;;10.50;4.57;;;;;;;10.62;100.00;93650.22;5073398;28;20203;-82
2021/08/27 01:28:46;;;;;;;10.60;5.00;;;;;;;10.63;100.00;93649.22;5073413;28;20212;-82
2021/08/27 01:31:18;;;;;;;12.37;5.43;;;;;;;10.64;100.00;93652.63;5073583;28;20226;-81
2021/08/27 01:34:09;;;;;;;16.93;4.93;;;;;;;10.65;100.00;93647.19;5073703;28;20199;-82
2021/08/27 01:36:38;;;;;;;10.80;4.53;;;;;;;10.65;100.00;93643.78;5073490;28;20214;-82
2021/08/27 01:39:07;;;;;;;12.07;4.77;;;;;;;10.64;100.00;93645.63;5073248;28;20203;-82
2021/08/27 01:41:36;;;;;;;11.60;5.20;;;;;;;10.73;100.00;93649.59;5073538;28;20210;-81
2021/08/27 01:44:05;;;;;;;9.00;4.57;;;;;;;10.68;100.00;93644.19;5073178;28;20206;-81
2021/08/27 01:46:33;;;;;;;8.77;4.27;;;;;;;10.65;100.00;93649.81;5073328;28;20231;-82
2021/08/27 01:49:01;;;;;;;7.87;4.00;;;;;;;10.62;100.00;93652.03;5072597;28;20202;-81
2021/08/27 01:51:29;;;;;;;9.97;4.93;;;;;;;10.62;100.00;93642.38;5073178;28;20227;-82
2021/08/27 01:53:58;;;;;;;7.53;4.67;;;;;;;10.74;100.00;93648.59;5073064;28;20203;-81
2021/08/27 01:56:25;;;;;;;10.23;4.67;;;;;;;10.68;100.00;93657.22;5071354;28;20803;-82
2021/08/27 01:58:51;;;;;;;9.93;4.67;;;;;;;10.70;100.00;93652.59;5072580;28;20685;-81
2021/08/27 02:01:18;;;;;;;12.03;4.37;;;;;;;10.72;100.00;93649.78;5073394;28;20202;-82
2021/08/27 02:03:46;;;;;;;11.43;4.87;;;;;;;10.71;100.00;93649.00;5073077;28;20205;-81
2021/08/27 02:06:14;;;;;;;12.47;5.10;;;;;;;10.64;100.00;93655.22;5073138;28;20210;-81
2021/08/27 02:08:42;;;;;;;11.67;4.37;;;;;;;10.62;100.00;93658.03;5073149;28;20202;-83
2021/08/27 02:11:10;;;;;;;8.83;4.10;;;;;;;10.63;100.00;93661.47;5073016;28;20226;-82
2021/08/27 02:13:36;;;;;;;8.90;4.33;;;;;;;10.62;100.00;93650.22;5072821;28;20658;-81
2021/08/27 02:16:06;;;;;;;9.40;4.23;;;;;;;10.64;100.00;93653.44;5072811;28;20208;-82
2021/08/27 02:18:32;;;;;;;12.63;4.70;;;;;;;10.68;100.00;93656.44;5073076;28;20199;-81
2021/08/27 02:21:00;;;;;;;9.00;4.43;;;;;;;10.67;100.00;93653.00;5073107;28;20215;-81
2021/08/27 02:23:28;;;;;;;9.83;4.27;;;;;;;10.72;100.00;93650.63;5072749;28;20677;-81
2021/08/27 02:25:56;;;;;;;10.50;4.40;;;;;;;10.73;100.00;93652.19;5073061;28;20195;-81
2021/08/27 02:28:25;;;;;;;9.60;4.37;;;;;;;10.78;100.00;93656.03;5072730;28;20215;-82
2021/08/27 02:30:53;;;;;;;8.70;4.20;;;;;;;10.77;100.00;93651.81;5075678;28;20213;-80
2021/08/27 02:33:21;;;;;;;9.30;4.07;;;;;;;10.78;100.00;93653.41;5076901;28;20209;-80
2021/08/27 02:35:51;;;;;;;6.73;4.00;;;;;;;10.75;100.00;93654.59;5076709;28;20206;-80
2021/08/27 02:38:23;;;;;;;6.73;4.00;;;;;;;10.71;100.00;93651.59;5076641;28;20214;-81
2021/08/27 02:40:50;;;;;;;9.50;4.80;;;;;;;10.64;100.00;93661.28;5076489;28;20210;-82
2021/08/27 02:43:16;;;;;;;14.13;5.13;;;;;;;10.67;100.00;93660.06;5076514;28;20199;-81
2021/08/27 02:45:44;;;;;;;12.50;4.53;;;;;;;10.71;100.00;93653.44;5076289;28;20231;-81
2021/08/27 02:48:12;;;;;;;12.40;4.60;;;;;;;10.79;100.00;93652.38;5076464;28;20224;-80
2021/08/27 02:50:54;;;;;;;18.43;5.43;;;;;;;10.85;100.00;93651.56;5076462;28;20201;-81
2021/08/27 02:53:24;;;;;;;10.77;4.50;;;;;;;10.78;100.00;93643.75;5076267;28;20210;-80
2021/08/27 02:55:56;;;;;;;10.20;4.80;;;;;;;10.76;100.00;93634.50;5076220;28;20207;-79
2021/08/27 02:58:27;;;;;;;8.27;4.40;;;;;;;10.77;100.00;93641.34;5076225;28;20203;-80
2021/08/27 03:01:01;;;;;;;9.67;4.30;;;;;;;10.73;100.00;93641.75;5076332;28;20202;-81
2021/08/27 03:03:32;;;;;;;12.07;5.20;;;;;;;10.71;100.00;93650.81;5076289;28;20241;-80
2021/08/27 03:06:07;;;;;;;11.47;4.73;;;;;;;10.68;100.00;93654.63;5076075;28;20202;-82
2021/08/27 03:08:34;;;;;;;11.53;4.57;;;;;;;10.71;100.00;93643.78;5075772;28;20675;-82
2021/08/27 03:11:07;;;;;;;11.20;4.53;;;;;;;10.75;100.00;93644.16;5076054;28;20202;-81
2021/08/27 03:13:40;;;;;;;14.10;5.50;;;;;;;10.69;100.00;93652.81;5075516;28;20567;-80
2021/08/27 03:16:12;;;;;;;14.10;5.67;;;;;;;10.65;100.00;93643.78;5076115;28;20206;-81
2021/08/27 03:18:44;;;;;;;8.90;4.73;;;;;;;10.64;100.00;93643.00;5076025;28;20205;-81
2021/08/27 03:21:15;;;;;;;10.07;5.17;;;;;;;10.60;100.00;93646.22;5075941;28;20199;-82
2021/08/27 03:23:46;;;;;;;9.83;5.03;;;;;;;10.60;100.00;93638.38;5075888;28;20202;-81
2021/08/27 03:26:19;;;;;;;14.27;5.60;;;;;;;10.61;100.00;93638.19;5075804;28;20538;-81
2021/08/27 03:28:50;;;;;;;8.73;4.43;;;;;;;10.66;100.00;93635.75;5075703;28;20222;-81
2021/08/27 03:31:19;;;;;;;8.77;4.90;;;;;;;10.68;100.00;93631.13;5075563;28;20238;-81
2021/08/27 03:33:46;;;;;;;12.00;4.83;;;;;;;10.68;100.00;93638.97;5075651;28;20202;-81
2021/08/27 03:36:13;;;;;;;11.87;4.87;;;;;;;10.68;100.00;93632.94;5075479;28;20667;-82
2021/08/27 03:38:39;;;;;;;8.10;4.63;;;;;;;10.64;100.00;93626.50;5075508;28;20206;-81
2021/08/27 03:41:06;;;;;;;11.40;5.20;;;;;;;10.63;100.00;93636.16;5074337;28;20195;-80
2021/08/27 03:43:33;;;;;;;10.20;4.73;;;;;;;10.72;100.00;93634.94;5075354;28;20202;-81
2021/08/27 03:46:01;;;;;;;9.50;5.30;;;;;;;10.80;100.00;93639.13;5074865;28;20241;-80
2021/08/27 03:48:29;;;;;;;9.70;4.60;;;;;;;10.81;100.00;93643.34;5075422;28;20206;-81
2021/08/27 03:50:57;;;;;;;14.60;6.23;;;;;;;10.79;100.00;93636.72;5075121;28;20704;-80
2021/08/27 03:53:24;;;;;;;8.90;4.87;;;;;;;10.73;100.00;93633.94;5075250;28;20230;-81
2021/08/27 03:55:54;;;;;;;17.27;5.10;;;;;;;10.66;100.00;93640.97;5075153;28;20199;-80
2021/08/27 03:58:22;;;;;;;13.97;5.23;;;;;;;10.63;100.00;93644.00;5074896;28;20539;-80
2021/08/27 04:00:51;;;;;;;13.87;5.40;;;;;;;10.60;100.00;93646.22;5075227;28;20209;-81
2021/08/27 04:03:19;;;;;;;13.13;6.07;;;;;;;10.59;100.00;93642.00;5075187;28;20206;-80
2021/08/27 04:06:00;;;;;;;10.40;5.57;;;;;;;10.55;100.00;93649.44;5075085;28;20198;-80
2021/08/27 04:08:26;;;;;;;14.97;6.07;;;;;;;10.53;100.00;93652.25;5074982;28;20210;-79
2021/08/27 04:10:53;;;;;;;14.57;6.40;;;;;;;10.52;100.00;93657.66;5074718;28;20672;-80
2021/08/27 04:13:19;;;;;;;14.50;5.97;;;;;;;10.54;100.00;93653.03;5074766;28;20586;-80
2021/08/27 04:15:46;;;;;;;12.70;6.57;;;;;;;10.52;100.00;93660.28;5075077;28;20577;-80
2021/08/27 04:18:12;;;;;;;16.97;6.43;;;;;;;10.53;100.00;93654.06;5074735;28;20195;-81
2021/08/27 04:20:39;;;;;;;15.60;6.83;;;;;;;10.49;100.00;93656.28;5074561;28;20203;-81
2021/08/27 04:23:06;;;;;;;14.80;6.87;;;;;;;10.53;100.00;93656.66;5074490;28;20207;-80
2021/08/27 04:25:33;;;;;;;17.47;7.20;;;;;;;10.54;100.00;93658.25;5074208;28;20209;-79
2021/08/27 04:28:00;;;;;;;16.03;6.63;;;;;;;10.52;100.00;93652.44;5074413;28;20294;-80
2021/08/27 04:30:26;;;;;;;15.33;6.93;;;;;;;10.56;100.00;93658.88;5074498;28;20290;-79
2021/08/27 04:32:55;;;;;;;14.43;7.07;;;;;;;10.57;100.00;93652.63;5073959;28;20735;-79
2021/08/27 04:35:21;;;;;;;15.57;7.10;;;;;;;10.49;100.00;93655.44;5074256;28;20206;-79
2021/08/27 04:37:48;;;;;;;18.50;7.13;;;;;;;10.48;100.00;93656.47;5073871;28;20206;-79
2021/08/27 04:40:16;;;;;;;19.37;7.63;;;;;;;10.50;100.00;93657.84;5073980;28;20230;-80
2021/08/27 04:42:42;;;;;;;17.63;7.17;;;;;;;10.49;100.00;93663.28;5074090;28;20234;-81
2021/08/27 04:45:10;;;;;;;15.43;7.33;;;;;;;10.54;100.00;93663.47;5074068;28;20210;-80
2021/08/27 04:47:36;;;;;;;15.53;7.20;;;;;;;10.49;100.00;93666.72;5074238;28;20203;-80
2021/08/27 04:50:03;;;;;;;12.90;7.33;;;;;;;10.49;100.00;93666.72;5074083;28;20201;-80
2021/08/27 04:52:30;;;;;;;20.53;7.23;;;;;;;10.50;100.00;93663.09;5073686;28;20247;-81
2021/08/27 04:54:56;;;;;;;20.40;7.40;;;;;;;10.48;100.00;93659.09;5073908;28;20198;-81
2021/08/27 04:57:24;;;;;;;19.50;7.57;;;;;;;10.48;100.00;93667.72;5073815;28;20232;-80
2021/08/27 04:59:51;;;;;;;17.17;7.00;;;;;;;10.51;100.00;93664.69;5073750;28;20199;-81
2021/08/27 05:02:17;;;;;;;16.80;7.27;;;;;;;10.51;100.00;93671.72;5073547;28;20194;-81
2021/08/27 05:04:44;;;;;;;18.33;7.73;;;;;;;10.51;100.00;93669.13;5073726;28;20199;-81
2021/08/27 05:07:11;;;;;;;22.20;8.13;;;;;;;10.46;100.00;93671.50;5073439;28;20629;-80
2021/08/27 05:09:38;;;;;;;17.88;8.65;;;;;;;10.51;100.00;93675.13;5072421;28;20517;-80
2021/08/27 05:12:05;;;;;;;17.80;7.70;;;;;;;10.56;100.00;93674.53;5073307;28;20226;-82
2021/08/27 05:14:33;;;;;;;15.17;6.90;;;;;;;10.60;100.00;93672.31;5073790;28;20199;-80
2021/08/27 05:17:00;;;;;;;17.20;6.97;;;;;;;10.71;100.00;93674.31;5073589;28;20199;-81
2021/08/27 05:19:26;;;;;;;17.37;7.40;;;;;;;10.81;100.00;93669.47;5073728;28;20654;-82
2021/08/27 05:21:53;;;;;;;21.60;7.43;;;;;;;10.69;100.00;93671.09;5073354;28;20581;-81
2021/08/27 05:24:20;;;;;;;20.00;7.43;;;;;;;10.63;100.00;93672.72;5073645;28;20252;-81
2021/08/27 05:26:46;;;;;;;20.37;7.67;;;;;;;10.60;100.00;93680.94;5073603;28;20203;-81
2021/08/27 05:29:13;;;;;;;17.67;7.83;;;;;;;10.61;100.00;93690.41;5073352;28;20209;-80
2021/08/27 05:31:41;;;;;;;17.67;7.90;;;;;;;10.57;100.00;93683.94;5073039;28;20199;-81
2021/08/27 05:34:07;;;;;;;12.80;8.03;;;;;;;10.57;100.00;93689.19;5073505;28;20203;-80
2021/08/27 05:36:34;;;;;;;18.63;8.87;;;;;;;10.44;100.00;93694.41;5073087;28;20199;-82
2021/08/27 05:39:00;;;;;;;25.87;9.30;;;;;;;10.49;100.00;93697.22;5072996;28;20687;-81
2021/08/27 05:41:27;;;;;;;23.23;9.10;;;;;;;10.53;100.00;93695.81;5073486;28;20558;-81
2021/08/27 05:43:53;;;;;;;16.37;9.27;;;;;;;10.47;100.00;93701.84;5073346;28;20203;-82
2021/08/27 05:46:20;;;;;;;19.53;9.60;;;;;;;10.49;100.00;93699.81;5073158;28;20230;-82
2021/08/27 05:48:48;;;;;;;16.53;9.77;;;;;;;10.41;100.00;93706.06;5073438;28;20206;-81
2021/08/27 05:51:14;;;;;;;23.30;10.20;;;;;;;10.28;100.00;93712.03;5073175;28;20558;-81
2021/08/27 05:53:41;;;;;;;25.10;10.30;;;;;;;10.26;100.00;93715.84;5073253;28;20246;-81
2021/08/27 05:56:07;;;;;;;23.85;11.98;;;;;;;10.24;100.00;93716.06;5072535;28;20561;-81
2021/08/27 05:58:34;;;;;;;19.73;10.20;;;;;;;10.22;100.00;93717.25;5073194;28;20199;-81
2021/08/27 06:01:01;;;;;;;21.00;11.03;;;;;;;10.31;100.00;93719.47;5072969;28;20661;-82
2021/08/27 06:03:27;;;;;;;18.47;10.30;;;;;;;10.32;100.00;93715.09;5072930;28;20202;-81
2021/08/27 06:05:55;;;;;;;18.27;10.20;;;;;;;10.32;100.00;93723.72;5079411;28;20206;-82
2021/08/27 06:08:22;;;;;;;22.03;10.07;;;;;;;10.31;100.00;93723.91;5079648;28;20561;-81
2021/08/27 06:10:48;;;;;;;23.20;11.40;;;;;;;10.32;100.00;93723.72;5080537;28;20202;-82
2021/08/27 06:13:15;;;;;;;23.97;10.67;;;;;;;10.33;100.00;93725.31;5079924;28;20268;-81
2021/08/27 06:15:43;;;;;;;17.53;10.87;;;;;;;10.34;100.00;93729.56;5080337;28;20277;-81
2021/08/27 06:18:10;;;;;;;23.60;10.80;;;;;;;10.35;100.00;93731.13;5079694;28;20305;-81
2021/08/27 06:20:36;;;;;;;24.07;10.97;;;;;;;10.34;100.00;93732.16;5079906;28;20203;-80
2021/08/27 06:23:05;;;;;;;22.23;11.03;;;;;;;10.41;100.00;93737.38;5079957;28;20657;-81
2021/08/27 06:25:31;;;;;;;23.47;12.00;;;;;;;10.42;100.00;93733.75;5080160;28;20222;-81
2021/08/27 06:27:57;;;;;;;19.63;11.53;;;;;;;10.52;100.00;93734.19;5079313;28;20206;-81
2021/08/27 06:30:24;;;;;;;21.43;10.60;;;;;;;10.64;100.00;93737.00;5080832;28;20206;-80
2021/08/27 06:32:51;;;;;;;21.63;10.80;;;;;;;10.73;100.00;93730.53;5079641;28;20279;-81
2021/08/27 06:35:17;;;;;;;20.23;9.97;;;;;;;10.77;100.00;93736.16;5079756;28;20206;-80
2021/08/27 06:40:29;;;;;;;13.60;7.37;;;;;;;10.84;100.00;93730.94;5079767;28;20723;-82
2021/08/27 06:42:56;;;;;;;16.60;8.10;;;;;;;10.80;100.00;93730.53;5079832;28;20543;-82
2021/08/27 06:45:22;;;;;;;16.07;9.03;;;;;;;10.73;100.00;93738.38;5078915;28;20289;-81
2021/08/27 06:47:49;;;;;;;16.20;9.43;;;;;;;10.68;100.00;93735.56;5079390;28;20568;-81
2021/08/27 06:50:15;;;;;;;19.33;9.07;;;;;;;10.66;100.00;93740.19;5079291;28;20201;-82
2021/08/27 06:52:42;;;;;;;19.57;9.97;;;;;;;10.57;100.00;93740.59;5079138;28;20249;-81
2021/08/27 06:55:10;;;;;;;20.03;10.23;;;;;;;10.59;100.00;93749.84;5079077;28;20203;-81
2021/08/27 06:57:37;;;;;;;21.70;10.30;;;;;;;10.51;100.00;93750.03;5078979;28;20238;-80
2021/08/27 07:00:05;;;;;;;20.20;10.40;;;;;;;10.48;100.00;93742.59;5078981;28;20231;-82
2021/08/27 07:02:32;;;;;;;20.70;11.10;;;;;;;10.45;100.00;93753.44;5079199;28;20542;-81
2021/08/27 07:04:58;;;;;;;18.43;10.63;;;;;;;10.53;100.00;93758.47;5079060;28;20725;-80
2021/08/27 07:07:25;;;;;;;17.37;9.77;;;;;;;10.50;100.00;93761.47;5078734;28;20203;-81
2021/08/27 07:09:52;;;;;;;14.87;7.87;;;;;;;10.47;100.00;93754.03;5078873;28;20207;-81
2021/08/27 07:12:18;;;;;;;14.63;9.47;;;;;;;10.53;100.00;93755.84;5078780;28;20195;-80
2021/08/27 07:14:50;;;;;;;17.27;9.07;;;;;;;10.68;100.00;93764.28;5078722;28;20210;-81
2021/08/27 07:17:16;;;;;;;21.97;8.53;;;;;;;10.77;100.00;93761.47;5075969;28;20285;-81
2021/08/27 07:19:43;;;;;;;19.07;8.23;;;;;;;10.89;100.00;93765.91;5075587;28;20234;-81
2021/08/27 07:22:09;;;;;;;13.97;7.80;;;;;;;10.88;100.00;93766.88;5075141;28;20205;-80
2021/08/27 07:24:36;;;;;;;13.63;7.80;;;;;;;10.90;100.00;93771.91;5075419;28;20202;-82
2021/08/27 07:27:02;;;;;;;13.07;7.47;;;;;;;10.78;100.00;93765.69;5075517;28;20680;-81
2021/08/27 07:29:29;;;;;;;15.63;7.63;;;;;;;10.81;100.00;93773.09;5075367;28;20199;-82
2021/08/27 07:31:57;;;;;;;15.60;8.83;;;;;;;10.89;100.00;93771.13;5075444;28;20203;-80
2021/08/27 07:34:23;;;;;;;16.83;8.27;;;;;;;10.99;100.00;93762.88;5075245;28;20689;-81
2021/08/27 07:36:50;;;;;;;17.90;8.47;;;;;;;11.02;100.00;93770.28;5075369;28;20208;-78
2021/08/27 07:39:16;;;;;;;17.17;7.50;;;;;;;11.18;100.00;93776.91;5075081;28;20206;-80
2021/08/27 07:41:43;;;;;;;18.07;8.03;;;;;;;11.29;100.00;93760.59;5075597;28;20202;-81
2021/08/27 07:44:16;;;;;;;11.10;6.67;;;;;;;11.30;100.00;93766.63;5075314;28;20214;-81
2021/08/27 07:46:43;;;;;;;13.33;6.67;;;;;;;11.57;100.00;93766.53;5075133;28;20230;-81
2021/08/27 07:49:11;;;;;;;12.30;6.47;;;;;;;11.63;100.00;93770.97;5074979;28;20209;-81
2021/08/27 07:51:37;;;;;;;18.20;6.33;;;;;;;11.70;100.00;93769.09;5074951;28;20562;-81
2021/08/27 07:54:04;;;;;;;9.70;6.17;;;;;;;11.83;100.00;93769.06;5074828;28;20238;-81
2021/08/27 07:56:30;;;;;;;13.07;6.03;;;;;;;11.90;100.00;93755.16;5074954;28;20228;-81
2021/08/27 07:58:57;;;;;;;12.57;6.20;;;;;;;12.26;100.00;93765.03;5075089;28;20207;-81
2021/08/27 08:01:32;;;;;;;12.60;5.15;;;;;;;12.16;100.00;93769.94;5075113;28;20198;-81
2021/08/27 08:04:06;;;;;;;11.50;4.97;;;;;;;12.50;100.00;93766.09;5074740;28;20729;-81
2021/08/27 08:06:35;;;;;;;10.80;3.95;;;;;;;12.72;100.00;93779.66;5074606;28;20289;-80
2021/08/27 08:09:02;;;;;;;10.98;4.00;;;;;;;12.89;100.00;93774.66;5074740;28;20214;-82
2021/08/27 08:11:30;;;;;;;7.72;3.50;;;;;;;12.77;100.00;93777.19;5074774;28;20206;-82
2021/08/27 08:13:56;;;;;;;8.32;4.45;;;;;;;13.09;100.00;93779.72;5074264;28;20226;-81
2021/08/27 08:16:22;;;;;;;11.25;3.47;;;;;;;13.23;100.00;93777.78;5060429;28;20211;-80
2021/08/27 08:18:52;;;;;;;7.13;2.55;;;;;;;13.12;100.00;93783.72;5054390;28;20710;-79
2021/08/27 08:21:23;;;;;;;11.55;3.30;;;;;;;13.10;100.00;93780.53;5054611;28;20199;-79
2021/08/27 08:23:54;;;;;;;6.38;2.65;;;;;;;12.99;100.00;93786.47;5070885;28;20199;-78
2021/08/27 08:26:31;;;;;;;6.93;2.70;;;;;;;13.33;100.00;93790.44;5074570;28;20206;-79
2021/08/27 08:28:58;;;;;;;7.38;2.97;;;;;;;13.65;100.00;93787.69;5073943;28;20198;-80
2021/08/27 08:31:24;;;;;;;5.85;2.53;;;;;;;13.88;100.00;93802.75;5074044;28;20210;-81
2021/08/27 08:33:55;;;;;;;4.00;2.40;;;;;;;13.89;100.00;93788.63;5075242;28;20258;-82
2021/08/27 08:36:22;;;;;;;8.52;2.80;;;;;;;13.55;100.00;93792.63;5075045;28;20202;-82
2021/08/27 08:38:51;;;;;;;10.13;2.60;;;;;;;13.40;100.00;93795.59;5074123;28;20234;-80
2021/08/27 08:41:23;;;;;;;8.73;2.90;;;;;;;13.78;100.00;93791.97;5073905;28;20557;-80
2021/08/27 08:43:51;;;;;;;7.25;3.05;;;;;;;13.85;100.00;93792.69;5074044;28;20202;-80
2021/08/27 08:46:23;;;;;;;5.60;2.90;;;;;;;13.54;100.00;93797.09;5073824;28;20284;-80
2021/08/27 08:48:52;;;;;;;5.80;2.72;;;;;;;14.01;100.00;93796.56;5074037;28;20203;-80
2021/08/27 08:51:23;;;;;;;10.55;2.40;;;;;;;14.47;100.00;93802.22;5074188;28;20207;-78
2021/08/27 08:53:57;;;;;;;5.65;2.35;;;;;;;14.66;99.61;93793.28;5073743;28;20232;-79
2021/08/27 08:56:24;;;;;;;3.95;2.67;;;;;;;14.33;96.79;93805.00;5073737;28;20201;-79
2021/08/27 08:58:50;;;;;;;6.75;2.85;;;;;;;13.75;100.00;93814.19;5073448;28;20206;-80
2021/08/27 09:01:20;;;;;;;7.10;2.40;;;;;;;13.81;100.00;93804.66;5073757;28;20194;-78
2021/08/27 09:03:47;;;;;;;6.68;3.05;;;;;;;13.62;100.00;93804.66;5073499;28;20553;-80
2021/08/27 09:06:15;;;;;;;7.30;3.20;;;;;;;13.55;100.00;93817.03;5073526;28;20195;-78
2021/08/27 09:08:45;;;;;;;7.65;3.40;;;;;;;14.04;98.70;93812.66;5072928;28;20429;-80
2021/08/27 09:11:22;;;;;;;7.47;3.13;;;;;;;14.05;100.00;93810.81;5073385;28;20210;-78
2021/08/27 09:13:53;;;;;;;5.20;3.00;;;;;;;14.06;100.00;93807.97;5073494;28;20237;-79
2021/08/27 09:16:23;;;;;;;8.75;2.75;;;;;;;14.55;100.00;93807.94;5073461;28;20207;-81
2021/08/27 09:18:51;;;;;;;9.02;3.25;;;;;;;13.94;99.34;93811.56;5072736;28;20199;-79
2021/08/27 09:21:34;;;;;;;7.18;3.08;;;;;;;13.84;98.38;93805.03;5073245;28;20628;-81
2021/08/27 09:24:22;;;;;;;6.15;3.15;;;;;;;13.77;99.58;93806.09;5073128;28;20657;-79
2021/08/27 09:26:56;;;;;;;5.32;2.80;;;;;;;13.75;100.00;93813.41;5062164;28;20244;-78
2021/08/27 09:29:33;;;;;;;8.55;2.95;;;;;;;13.22;100.00;93807.66;5073282;28;20195;-81
2021/08/27 09:32:17;;;;;;;8.05;2.80;;;;;;;13.48;100.00;93808.44;5073091;28;20206;-80
2021/08/27 09:34:44;;;;;;;8.60;2.75;;;;;;;13.55;100.00;93809.16;5073064;28;20226;-80
2021/08/27 09:37:17;;;;;;;6.47;3.05;;;;;;;13.72;100.00;93804.13;5073187;28;20203;-80
2021/08/27 09:39:43;;;;;;;7.05;3.50;;;;;;;13.73;99.19;93799.72;5072282;28;20202;-80
2021/08/27 09:42:15;;;;;;;7.10;3.55;;;;;;;13.64;98.45;93805.25;5073059;28;20570;-80
2021/08/27 09:44:53;;;;;;;8.23;3.45;;;;;;;13.85;100.00;93809.22;5073212;28;20634;-80
2021/08/27 09:47:20;;;;;;;7.47;3.40;;;;;;;13.50;95.98;93807.19;5072747;28;20257;-79
2021/08/27 09:49:46;;;;;;;6.68;3.45;;;;;;;13.19;98.06;93802.00;5073111;28;20199;-78
2021/08/27 09:52:13;;;;;;;7.30;3.58;;;;;;;12.95;100.00;93805.22;5073047;28;20199;-79
2021/08/27 09:54:43;;;;;;;10.00;3.85;;;;;;;13.31;100.00;93795.06;5072881;28;20233;-79
2021/08/27 09:57:12;;;;;;;5.93;3.42;;;;;;;13.38;100.00;93805.53;5073111;28;20218;-80
2021/08/27 09:59:43;;;;;;;9.52;3.58;;;;;;;13.69;100.00;93794.91;5073095;28;20294;-80
2021/08/27 10:02:18;;;;;;;5.40;3.03;;;;;;;13.46;99.28;93800.78;5072961;28;20614;-79
2021/08/27 10:04:57;;;;;;;10.60;3.33;;;;;;;13.99;95.86;93788.91;5073036;28;20293;-80
2021/08/27 10:07:28;;;;;;;6.43;3.45;;;;;;;14.28;93.36;93786.50;5072943;28;20245;-80
2021/08/27 10:09:55;;;;;;;7.95;3.28;;;;;;;14.00;94.25;93795.72;5073153;28;20195;-79
2021/08/27 10:12:22;;;;;;;8.10;3.55;;;;;;;13.85;96.57;93801.34;5072902;28;20211;-81
2021/08/27 10:14:59;;;;;;;12.23;4.43;;;;;;;13.69;96.96;93794.91;5072867;28;20222;-79
2021/08/27 10:17:27;;;;;;;7.00;2.85;;;;;;;13.91;91.56;93789.19;5071983;28;20225;-81
2021/08/27 10:19:54;;;;;;;7.57;3.38;;;;;;;14.16;95.80;93788.28;5073322;28;20202;-81
2021/08/27 10:22:21;;;;;;;5.13;2.72;;;;;;;14.90;90.54;93790.69;5072903;28;20241;-81
2021/08/27 10:24:52;;;;;;;5.90;2.83;;;;;;;15.14;88.47;93783.63;5073190;28;20569;-81
2021/08/27 10:27:19;;;;;;;4.35;2.50;;;;;;;14.88;90.76;93784.88;5072638;28;20226;-81
2021/08/27 10:29:54;;;;;;;10.70;3.25;;;;;;;15.29;89.72;93783.19;5072961;28;20566;-81
2021/08/27 10:32:49;;;;;;;4.97;3.00;;;;;;;14.61;90.74;93780.81;5072315;28;20481;-79
2021/08/27 10:35:50;;;;;;;6.47;3.38;;;;;;;14.78;92.96;93780.94;5074293;28;20231;-81
2021/08/27 10:38:43;;;;;;;5.78;3.10;;;;;;;14.52;95.01;93779.50;5073053;28;20203;-81
2021/08/27 10:41:19;;;;;;;6.68;2.70;;;;;;;14.51;94.98;93791.03;5073974;28;20554;-80
2021/08/27 10:43:57;;;;;;;5.90;3.25;;;;;;;14.40;92.15;93791.78;5073174;28;20204;-79
2021/08/27 10:47:08;;;;;;;5.72;3.55;;;;;;;14.09;97.42;93787.56;5073790;28;20284;-81
2021/08/27 10:50:03;;;;;;;5.88;3.00;;;;;;;14.33;93.49;93783.22;5072928;28;20202;-81
2021/08/27 10:52:37;;;;;;;10.75;3.72;;;;;;;14.57;93.86;93790.16;5076285;28;20201;-81
2021/08/27 10:55:23;;;;;;;7.30;3.70;;;;;;;14.55;97.23;93781.66;5077098;28;20689;-81
2021/08/27 10:57:58;;;;;;;5.65;3.17;;;;;;;14.89;94.95;93794.34;5077589;28;20257;-81
2021/08/27 11:00:39;;;;;;;5.50;2.92;;;;;;;15.25;92.59;93795.19;5076456;28;20202;-81
2021/08/27 11:03:15;;;;;;;5.30;3.00;;;;;;;15.06;87.25;93803.16;5076243;28;20586;-80
2021/08/27 11:05:47;;;;;;;3.33;2.50;;;;;;;15.46;87.19;93796.44;5076037;28;20194;-82
2021/08/27 11:08:16;;;;;;;4.93;2.53;;;;;;;15.21;87.36;93804.56;5076735;28;20253;-82
2021/08/27 11:10:44;;;;;;;5.07;3.10;;;;;;;14.89;90.68;93796.97;5076685;28;20221;-80
2021/08/27 11:13:15;;;;;;;7.03;2.78;;;;;;;14.97;89.30;93794.81;5075646;28;20672;-81
2021/08/27 11:15:43;;;;;;;4.47;2.33;;;;;;;15.29;88.83;93796.34;5075756;28;20230;-81
2021/08/27 11:18:24;;;;;;;5.90;2.72;;;;;;;15.82;87.25;93792.75;5075978;28;20199;-81
2021/08/27 11:20:54;;;;;;;5.90;2.72;;;;;;;16.50;85.97;93779.78;5076751;28;20198;-82
2021/08/27 11:23:21;;;;;;;6.43;2.40;;;;;;;17.06;78.97;93787.09;5075635;28;20210;-81
2021/08/27 11:26:03;;;;;;;4.38;2.75;;;;;;;17.18;83.39;93787.78;5075712;28;20206;-79
2021/08/27 11:28:35;;;;;;;3.97;2.33;;;;;;;17.04;79.27;93781.22;5075398;28;20653;-80
2021/08/27 11:31:06;;;;;;;5.60;2.60;;;;;;;16.87;77.80;93783.88;5075531;28;20207;-81
2021/08/27 11:33:53;;;;;;;6.22;2.63;;;;;;;16.15;78.79;93786.00;5075355;28;20198;-80
2021/08/27 11:36:21;;;;;;;3.85;2.15;;;;;;;15.99;82.95;93792.03;5075625;28;20579;-78